createdAt,value
2019-04-16T00:00:53.873Z,8.47
2019-04-16T00:01:53.782Z,8.42
2019-04-16T00:02:53.783Z,8.32
2019-04-16T00:03:54.815Z,8.40
2019-04-16T00:04:56.585Z,8.27
2019-04-16T00:05:53.464Z,8.17
2019-04-16T00:06:53.474Z,8.22
2019-04-16T00:07:53.533Z,8.24
2019-04-16T00:08:54.133Z,8.24
2019-04-16T00:09:53.111Z,8.27
2019-04-16T00:10:53.021Z,8.17
2019-04-16T00:11:52.989Z,8.14
2019-04-16T00:12:52.874Z,8.10
2019-04-16T00:13:52.801Z,8.13
2019-04-16T00:14:52.684Z,8.17
2019-04-16T00:15:52.600Z,8.06
2019-04-16T00:16:54.562Z,7.99
2019-04-16T00:17:52.447Z,8.04
2019-04-16T00:18:58.041Z,8.00
2019-04-16T00:19:52.330Z,7.95
2019-04-16T00:20:52.184Z,7.91
2019-04-16T00:21:52.095Z,7.95
2019-04-16T00:22:55.558Z,7.85
2019-04-16T00:23:51.925Z,7.92
2019-04-16T00:24:51.841Z,7.89
2019-04-16T00:25:52.055Z,7.85
2019-04-16T00:26:51.670Z,7.89
2019-04-16T00:27:51.702Z,7.85
2019-04-16T00:28:51.503Z,7.70
2019-04-16T00:29:51.479Z,7.74
2019-04-16T00:30:51.331Z,7.67
2019-04-16T00:31:51.249Z,7.67
2019-04-16T00:32:51.226Z,7.63
2019-04-16T00:33:51.082Z,7.51
2019-04-16T00:34:51.005Z,7.63
2019-04-16T00:35:51.006Z,7.52
2019-04-16T00:36:50.841Z,7.47
2019-04-16T00:37:51.637Z,7.54
2019-04-16T00:38:53.844Z,7.50
2019-04-16T00:39:50.646Z,7.48
2019-04-16T00:40:50.485Z,7.48
2019-04-16T00:41:50.416Z,7.44
2019-04-16T00:42:50.342Z,7.34
2019-04-16T00:43:50.345Z,7.37
2019-04-16T00:44:50.150Z,7.36
2019-04-16T00:45:50.062Z,7.23
2019-04-16T00:46:49.981Z,7.24
2019-04-16T00:47:51.410Z,7.32
2019-04-16T00:48:49.824Z,7.18
2019-04-16T00:49:49.725Z,7.07
2019-04-16T00:50:49.681Z,7.14
2019-04-16T00:51:49.552Z,7.14
2019-04-16T00:52:49.490Z,7.11
2019-04-16T00:53:49.397Z,7.11
2019-04-16T00:54:49.418Z,7.00
2019-04-16T00:55:49.217Z,6.99
2019-04-16T00:56:49.136Z,7.04
2019-04-16T00:57:51.160Z,7.01
2019-04-16T00:58:49.335Z,7.07
2019-04-16T00:59:48.881Z,6.97
2019-04-16T01:00:48.825Z,6.87
2019-04-16T01:01:48.709Z,7.04
2019-04-16T01:02:48.631Z,6.99
2019-04-16T01:03:48.548Z,6.93
2019-04-16T01:04:49.466Z,6.94
2019-04-16T01:05:48.371Z,6.82
2019-04-16T01:06:48.280Z,6.93
2019-04-16T01:07:48.193Z,6.89
2019-04-16T01:08:54.597Z,6.90
2019-04-16T01:09:48.025Z,6.90
2019-04-16T01:10:47.939Z,6.89
2019-04-16T01:11:49.018Z,6.81
2019-04-16T01:12:47.881Z,6.81
2019-04-16T01:13:47.699Z,6.79
2019-04-16T01:14:47.690Z,6.78
2019-04-16T01:15:47.516Z,6.81
2019-04-16T01:16:47.497Z,6.72
2019-04-16T01:17:47.348Z,6.73
2019-04-16T01:18:47.345Z,6.73
2019-04-16T01:19:47.172Z,6.65
2019-04-16T01:20:47.120Z,6.54
2019-04-16T01:21:47.008Z,6.54
2019-04-16T01:22:47.538Z,6.53
2019-04-16T01:23:49.350Z,6.68
2019-04-16T01:24:51.387Z,6.71
2019-04-16T01:25:46.666Z,6.55
2019-04-16T01:26:46.579Z,6.53
2019-04-16T01:27:47.635Z,6.38
2019-04-16T01:28:46.428Z,6.42
2019-04-16T01:29:46.333Z,6.38
2019-04-16T01:30:46.268Z,6.40
2019-04-16T01:31:46.163Z,6.35
2019-04-16T01:32:46.187Z,6.36
2019-04-16T01:33:46.736Z,6.45
2019-04-16T01:34:47.127Z,6.38
2019-04-16T01:35:51.205Z,6.36
2019-04-16T01:36:45.726Z,6.27
2019-04-16T01:37:45.702Z,6.28
2019-04-16T01:38:45.577Z,6.28
2019-04-16T01:39:47.598Z,6.30
2019-04-16T01:40:47.386Z,6.30
2019-04-16T01:41:45.302Z,6.17
2019-04-16T01:42:45.327Z,6.28
2019-04-16T01:43:45.148Z,6.14
2019-04-16T01:44:53.019Z,6.20
2019-04-16T01:45:44.960Z,6.17
2019-04-16T01:46:44.874Z,6.16
2019-04-16T01:47:44.850Z,6.11
2019-04-16T01:48:44.717Z,6.13
2019-04-16T01:49:44.622Z,6.03
2019-04-16T01:50:51.525Z,5.98
2019-04-16T01:51:44.695Z,6.08
2019-04-16T01:52:44.362Z,6.10
2019-04-16T01:53:44.319Z,6.02
2019-04-16T01:54:44.198Z,5.96
2019-04-16T01:55:44.199Z,6.01
2019-04-16T01:56:44.026Z,5.93
2019-04-16T01:57:43.938Z,5.87
2019-04-16T01:58:43.889Z,5.96
2019-04-16T01:59:43.811Z,5.87
2019-04-16T02:00:43.678Z,5.83
2019-04-16T02:01:44.245Z,5.87
2019-04-16T02:02:46.366Z,5.85
2019-04-16T02:03:43.422Z,5.87
2019-04-16T02:04:43.463Z,5.78
2019-04-16T02:05:43.249Z,5.87
2019-04-16T02:06:43.176Z,5.80
2019-04-16T02:07:43.146Z,5.78
2019-04-16T02:08:42.993Z,5.69
2019-04-16T02:09:42.927Z,5.65
2019-04-16T02:10:42.862Z,5.70
2019-04-16T02:11:42.741Z,5.67
2019-04-16T02:12:43.893Z,5.69
2019-04-16T02:13:45.834Z,5.74
2019-04-16T02:14:42.496Z,5.66
2019-04-16T02:15:42.485Z,5.69
2019-04-16T02:16:42.316Z,5.67
2019-04-16T02:17:42.223Z,5.62
2019-04-16T02:18:42.198Z,5.63
2019-04-16T02:19:42.068Z,5.67
2019-04-16T02:20:41.969Z,5.66
2019-04-16T02:21:42.119Z,5.55
2019-04-16T02:22:42.335Z,5.58
2019-04-16T02:23:41.829Z,5.58
2019-04-16T02:24:41.669Z,5.49
2019-04-16T02:25:51.366Z,5.51
2019-04-16T02:26:41.457Z,5.55
2019-04-16T02:27:41.439Z,5.55
2019-04-16T02:28:41.282Z,5.52
2019-04-16T02:29:41.284Z,5.56
2019-04-16T02:30:41.121Z,5.55
2019-04-16T02:31:43.117Z,5.58
2019-04-16T02:32:40.936Z,5.55
2019-04-16T02:33:40.861Z,5.56
2019-04-16T02:34:40.807Z,5.56
2019-04-16T02:35:40.685Z,5.58
2019-04-16T02:36:40.599Z,5.52
2019-04-16T02:37:42.545Z,5.48
2019-04-16T02:38:46.482Z,5.60
2019-04-16T02:39:49.086Z,5.49
2019-04-16T02:40:40.254Z,5.47
2019-04-16T02:41:40.210Z,5.52
2019-04-16T02:42:40.082Z,5.52
2019-04-16T02:43:41.213Z,5.66
2019-04-16T02:44:39.954Z,5.55
2019-04-16T02:45:39.829Z,5.55
2019-04-16T02:46:39.741Z,5.56
2019-04-16T02:47:42.186Z,5.62
2019-04-16T02:48:39.591Z,5.49
2019-04-16T02:49:39.511Z,5.51
2019-04-16T02:50:39.402Z,5.58
2019-04-16T02:51:41.210Z,5.58
2019-04-16T02:52:39.226Z,5.52
2019-04-16T02:53:39.167Z,5.58
2019-04-16T02:54:39.070Z,5.47
2019-04-16T02:55:42.607Z,5.45
2019-04-16T02:56:38.880Z,5.38
2019-04-16T02:57:38.794Z,5.44
2019-04-16T02:58:38.788Z,5.41
2019-04-16T02:59:42.643Z,5.44
2019-04-16T03:00:38.541Z,5.41
2019-04-16T03:01:38.512Z,5.29
2019-04-16T03:02:38.372Z,5.32
2019-04-16T03:03:38.325Z,5.22
2019-04-16T03:04:38.220Z,5.27
2019-04-16T03:05:38.226Z,5.24
2019-04-16T03:06:38.020Z,5.19
2019-04-16T03:07:38.029Z,5.12
2019-04-16T03:08:37.851Z,5.14
2019-04-16T03:09:40.235Z,5.11
2019-04-16T03:10:37.695Z,5.15
2019-04-16T03:11:37.651Z,5.02
2019-04-16T03:12:37.506Z,5.08
2019-04-16T03:13:37.419Z,5.05
2019-04-16T03:14:37.360Z,4.94
2019-04-16T03:15:37.264Z,4.97
2019-04-16T03:16:38.080Z,4.99
2019-04-16T03:17:39.560Z,4.94
2019-04-16T03:18:36.994Z,5.05
2019-04-16T03:19:38.901Z,5.04
2019-04-16T03:20:36.846Z,5.01
2019-04-16T03:21:36.795Z,5.05
2019-04-16T03:22:36.645Z,4.84
2019-04-16T03:24:12.547Z,4.87
2019-04-16T03:24:37.486Z,4.84
2019-04-16T03:25:36.404Z,4.83
2019-04-16T03:26:36.419Z,4.86
2019-04-16T03:27:36.224Z,4.84
2019-04-16T03:28:36.135Z,4.77
2019-04-16T03:29:37.159Z,4.72
2019-04-16T03:30:42.242Z,4.71
2019-04-16T03:31:35.881Z,4.57
2019-04-16T03:32:36.292Z,4.68
2019-04-16T03:33:35.725Z,4.67
2019-04-16T03:34:35.615Z,4.68
2019-04-16T03:35:36.621Z,4.74
2019-04-16T03:36:35.446Z,4.68
2019-04-16T03:37:35.370Z,4.68
2019-04-16T03:38:37.374Z,4.62
2019-04-16T03:39:35.214Z,4.62
2019-04-16T03:40:35.221Z,4.59
2019-04-16T03:41:35.013Z,4.47
2019-04-16T03:42:34.995Z,4.53
2019-04-16T03:43:34.841Z,4.50
2019-04-16T03:44:37.213Z,4.51
2019-04-16T03:45:37.617Z,4.50
2019-04-16T03:46:34.586Z,4.54
2019-04-16T03:47:34.503Z,4.53
2019-04-16T03:48:34.430Z,4.35
2019-04-16T03:49:34.428Z,4.49
2019-04-16T03:50:34.267Z,4.44
2019-04-16T03:51:35.646Z,4.47
2019-04-16T03:52:37.511Z,4.44
2019-04-16T03:53:33.996Z,4.34
2019-04-16T03:54:33.896Z,4.38
2019-04-16T03:55:33.888Z,4.42
2019-04-16T03:56:33.750Z,4.42
2019-04-16T03:57:33.892Z,4.31
2019-04-16T03:58:40.533Z,4.35
2019-04-16T03:59:33.461Z,4.26
2019-04-16T04:00:33.407Z,4.28
2019-04-16T04:01:33.290Z,4.38
2019-04-16T04:02:33.289Z,4.29
2019-04-16T04:03:33.123Z,4.26
2019-04-16T04:04:33.044Z,4.28
2019-04-16T04:05:34.955Z,4.29
2019-04-16T04:06:32.858Z,4.26
2019-04-16T04:07:32.801Z,4.25
2019-04-16T04:08:32.698Z,4.26
2019-04-16T04:09:32.606Z,4.25
2019-04-16T04:10:36.835Z,4.24
2019-04-16T04:11:32.429Z,4.25
2019-04-16T04:12:32.439Z,4.20
2019-04-16T04:13:32.253Z,4.16
2019-04-16T04:14:32.247Z,4.20
2019-04-16T04:15:32.115Z,4.16
2019-04-16T04:16:33.542Z,4.20
2019-04-16T04:17:31.905Z,4.08
2019-04-16T04:18:31.824Z,4.16
2019-04-16T04:19:31.769Z,4.20
2019-04-16T04:20:31.676Z,4.16
2019-04-16T04:21:31.565Z,4.16
2019-04-16T04:22:32.510Z,4.16
2019-04-16T04:23:31.392Z,4.14
2019-04-16T04:24:32.116Z,4.17
2019-04-16T04:25:36.066Z,4.14
2019-04-16T04:26:31.143Z,4.18
2019-04-16T04:27:31.048Z,4.18
2019-04-16T04:28:30.959Z,4.18
2019-04-16T04:29:30.878Z,4.13
2019-04-16T04:30:30.942Z,4.14
2019-04-16T04:31:32.309Z,4.11
2019-04-16T04:32:32.437Z,4.14
2019-04-16T04:33:31.559Z,4.16
2019-04-16T04:34:30.440Z,4.13
2019-04-16T04:35:30.446Z,4.14
2019-04-16T04:36:30.283Z,4.11
2019-04-16T04:37:32.050Z,4.17
2019-04-16T04:38:30.097Z,4.16
2019-04-16T04:39:30.019Z,4.14
2019-04-16T04:41:29.906Z,4.14
2019-04-16T04:42:29.833Z,4.10
2019-04-16T04:43:09.933Z,4.08
2019-04-16T04:43:32.022Z,4.14
2019-04-16T04:44:29.585Z,4.16
2019-04-16T04:45:30.518Z,4.14
2019-04-16T04:46:29.415Z,4.10
2019-04-16T04:47:30.426Z,4.13
2019-04-16T04:48:29.243Z,4.16
2019-04-16T04:49:31.098Z,4.06
2019-04-16T04:50:29.058Z,4.17
2019-04-16T04:51:29.127Z,4.16
2019-04-16T04:52:29.479Z,4.08
2019-04-16T04:53:31.437Z,4.18
2019-04-16T04:54:31.434Z,4.14
2019-04-16T04:55:28.630Z,4.18
2019-04-16T04:56:28.665Z,4.13
2019-04-16T04:57:31.142Z,4.14
2019-04-16T04:58:28.367Z,4.18
2019-04-16T04:59:28.282Z,4.13
2019-04-16T05:00:28.200Z,4.26
2019-04-16T05:01:28.130Z,4.25
2019-04-16T05:02:28.031Z,4.26
2019-04-16T05:03:27.944Z,4.25
2019-04-16T05:04:27.849Z,4.25
2019-04-16T05:05:27.771Z,4.21
2019-04-16T05:06:28.020Z,4.24
2019-04-16T05:07:29.336Z,4.21
2019-04-16T05:08:28.647Z,4.26
2019-04-16T05:09:29.324Z,4.31
2019-04-16T05:10:27.331Z,4.35
2019-04-16T05:11:27.265Z,4.42
2019-04-16T05:12:28.013Z,4.35
2019-04-16T05:13:27.077Z,4.49
2019-04-16T05:14:28.435Z,4.32
2019-04-16T05:15:29.443Z,4.39
2019-04-16T05:16:27.818Z,4.53
2019-04-16T05:17:26.736Z,4.56
2019-04-16T05:18:26.659Z,4.64
2019-04-16T05:19:26.570Z,4.53
2019-04-16T05:20:29.642Z,4.64
2019-04-16T05:21:26.397Z,4.62
2019-04-16T05:22:26.493Z,4.68
2019-04-16T05:23:26.255Z,4.84
2019-04-16T05:24:28.883Z,4.84
2019-04-16T05:25:26.049Z,4.80
2019-04-16T05:26:25.978Z,4.96
2019-04-16T05:27:29.091Z,4.96
2019-04-16T05:28:25.828Z,5.05
2019-04-16T05:29:25.703Z,4.90
2019-04-16T05:30:25.619Z,5.06
2019-04-16T05:31:26.191Z,5.12
2019-04-16T05:32:26.020Z,5.20
2019-04-16T05:33:25.362Z,5.30
2019-04-16T05:34:25.295Z,5.35
2019-04-16T05:35:25.187Z,5.40
2019-04-16T05:36:25.095Z,5.45
2019-04-16T05:37:25.030Z,5.58
2019-04-16T05:38:24.924Z,5.60
2019-04-16T05:39:28.340Z,5.62
2019-04-16T05:40:28.064Z,5.63
2019-04-16T05:41:24.666Z,5.67
2019-04-16T05:42:26.204Z,5.66
2019-04-16T05:43:24.499Z,5.77
2019-04-16T05:44:24.411Z,5.84
2019-04-16T05:45:24.330Z,5.90
2019-04-16T05:46:24.258Z,5.88
2019-04-16T05:47:24.170Z,6.03
2019-04-16T05:48:24.069Z,6.08
2019-04-16T05:49:25.876Z,6.17
2019-04-16T05:50:28.750Z,6.20
2019-04-16T05:51:23.954Z,6.35
2019-04-16T05:52:23.747Z,6.46
2019-04-16T05:53:23.658Z,6.50
2019-04-16T05:54:23.556Z,6.60
2019-04-16T05:55:23.469Z,6.73
2019-04-16T05:56:24.724Z,6.82
2019-04-16T05:57:26.125Z,6.93
2019-04-16T05:58:24.073Z,7.05
2019-04-16T05:59:23.134Z,7.14
2019-04-16T06:00:23.051Z,7.26
2019-04-16T06:01:22.963Z,7.47
2019-04-16T06:02:23.018Z,7.50
2019-04-16T06:03:23.516Z,7.66
2019-04-16T06:04:24.973Z,7.81
2019-04-16T06:05:26.810Z,7.94
2019-04-16T06:06:22.672Z,8.04
2019-04-16T06:07:22.481Z,8.14
2019-04-16T06:08:22.381Z,8.31
2019-04-16T06:09:22.294Z,8.45
2019-04-16T06:10:22.220Z,8.52
2019-04-16T06:11:29.853Z,8.64
2019-04-16T06:12:22.081Z,8.82
2019-04-16T06:13:21.974Z,8.94
2019-04-16T06:14:21.884Z,9.12
2019-04-16T06:15:22.573Z,9.16
2019-04-16T06:16:25.406Z,9.24
2019-04-16T06:17:21.649Z,9.20
2019-04-16T06:18:21.554Z,9.24
2019-04-16T06:19:21.470Z,9.42
2019-04-16T06:20:22.038Z,9.35
2019-04-16T06:21:25.040Z,9.48
2019-04-16T06:22:21.247Z,9.55
2019-04-16T06:23:21.148Z,9.60
2019-04-16T06:24:21.279Z,9.74
2019-04-16T06:25:20.984Z,9.83
2019-04-16T06:26:21.911Z,9.89
2019-04-16T06:27:20.832Z,10.14
2019-04-16T06:28:20.745Z,10.39
2019-04-16T06:29:20.659Z,10.52
2019-04-16T06:30:20.578Z,10.63
2019-04-16T06:31:20.504Z,10.63
2019-04-16T06:32:20.429Z,10.75
2019-04-16T06:33:20.350Z,10.69
2019-04-16T06:34:23.436Z,10.88
2019-04-16T06:35:20.274Z,10.86
2019-04-16T06:36:20.107Z,10.91
2019-04-16T06:37:21.583Z,11.12
2019-04-16T06:38:19.941Z,11.33
2019-04-16T06:39:19.856Z,11.35
2019-04-16T06:40:19.775Z,11.60
2019-04-16T06:41:19.697Z,11.74
2019-04-16T06:42:22.284Z,11.85
2019-04-16T06:43:19.546Z,12.01
2019-04-16T06:44:19.466Z,12.11
2019-04-16T06:45:19.676Z,12.23
2019-04-16T06:46:19.316Z,12.37
2019-04-16T06:47:19.213Z,12.52
2019-04-16T06:48:19.166Z,12.67
2019-04-16T06:49:19.236Z,12.69
2019-04-16T06:50:30.557Z,12.80
2019-04-16T06:51:18.900Z,12.91
2019-04-16T06:52:18.982Z,12.98
2019-04-16T06:53:19.876Z,12.98
2019-04-16T06:54:18.664Z,13.13
2019-04-16T06:55:18.575Z,13.29
2019-04-16T06:56:20.236Z,13.47
2019-04-16T06:57:18.419Z,13.61
2019-04-16T06:58:18.468Z,13.72
2019-04-16T06:59:18.260Z,13.81
2019-04-16T07:00:18.184Z,13.90
2019-04-16T07:01:18.105Z,13.93
2019-04-16T07:02:18.023Z,14.11
2019-04-16T07:03:17.958Z,14.27
2019-04-16T07:04:17.869Z,14.38
2019-04-16T07:05:17.995Z,14.48
2019-04-16T07:06:17.704Z,14.61
2019-04-16T07:07:17.625Z,14.67
2019-04-16T07:08:18.421Z,14.64
2019-04-16T07:09:17.486Z,14.69
2019-04-16T07:10:17.390Z,14.79
2019-04-16T07:11:17.328Z,14.75
2019-04-16T07:12:17.238Z,14.86
2019-04-16T07:13:17.230Z,14.95
2019-04-16T07:14:17.543Z,15.05
2019-04-16T07:15:22.569Z,15.15
2019-04-16T07:16:16.930Z,15.27
2019-04-16T07:17:18.276Z,15.49
2019-04-16T07:18:16.783Z,15.56
2019-04-16T07:19:17.693Z,15.74
2019-04-16T07:20:16.617Z,15.78
2019-04-16T07:21:17.584Z,15.93
2019-04-16T07:22:20.768Z,16.07
2019-04-16T07:23:16.471Z,16.04
2019-04-16T07:24:16.384Z,16.23
2019-04-16T07:25:16.630Z,16.34
2019-04-16T07:26:16.413Z,16.45
2019-04-16T07:27:19.647Z,16.42
2019-04-16T07:28:16.016Z,16.54
2019-04-16T07:29:16.013Z,16.57
2019-04-16T07:30:19.675Z,16.63
2019-04-16T07:31:31.760Z,16.70
2019-04-16T07:32:15.787Z,16.84
2019-04-16T07:33:15.628Z,16.95
2019-04-16T07:34:15.550Z,16.92
2019-04-16T07:35:15.462Z,16.85
2019-04-16T07:36:15.388Z,16.88
2019-04-16T07:37:15.321Z,16.96
2019-04-16T07:38:15.252Z,16.95
2019-04-16T07:39:28.694Z,17.00
2019-04-16T07:40:15.089Z,17.10
2019-04-16T07:41:17.009Z,16.99
2019-04-16T07:42:21.211Z,16.88
2019-04-16T07:43:15.965Z,16.88
2019-04-16T07:44:14.782Z,17.03
2019-04-16T07:45:14.708Z,17.10
2019-04-16T07:46:14.638Z,17.20
2019-04-16T07:47:19.832Z,17.05
2019-04-16T07:48:14.482Z,17.17
2019-04-16T07:49:14.431Z,17.33
2019-04-16T07:50:14.329Z,17.42
2019-04-16T07:51:14.293Z,17.54
2019-04-16T07:52:14.195Z,17.51
2019-04-16T07:53:14.488Z,17.47
2019-04-16T07:54:14.055Z,17.40
2019-04-16T07:55:13.957Z,17.53
2019-04-16T07:56:13.888Z,17.65
2019-04-16T07:57:13.812Z,17.83
2019-04-16T07:58:13.743Z,17.94
2019-04-16T07:59:13.670Z,18.02
2019-04-16T08:00:13.591Z,17.96
2019-04-16T08:01:16.268Z,18.10
2019-04-16T08:02:13.437Z,17.92
2019-04-16T08:03:13.364Z,17.99
2019-04-16T08:04:13.297Z,17.92
2019-04-16T08:05:13.209Z,17.94
2019-04-16T08:06:14.436Z,17.98
2019-04-16T08:07:13.061Z,18.02
2019-04-16T08:08:12.987Z,18.16
2019-04-16T08:09:12.937Z,18.17
2019-04-16T08:10:12.840Z,18.07
2019-04-16T08:11:12.766Z,17.98
2019-04-16T08:12:28.969Z,18.29
2019-04-16T08:13:14.182Z,18.54
2019-04-16T08:14:14.606Z,18.82
2019-04-16T08:15:15.286Z,18.89
2019-04-16T08:16:12.399Z,19.13
2019-04-16T08:17:12.321Z,19.31
2019-04-16T08:18:12.258Z,19.28
2019-04-16T08:19:15.027Z,19.28
2019-04-16T08:20:12.102Z,19.43
2019-04-16T08:21:12.530Z,19.43
2019-04-16T08:22:15.564Z,19.61
2019-04-16T08:23:11.883Z,19.75
2019-04-16T08:24:11.826Z,19.75
2019-04-16T08:25:11.742Z,19.65
2019-04-16T08:26:13.680Z,19.79
2019-04-16T08:27:18.046Z,19.68
2019-04-16T08:28:11.528Z,19.82
2019-04-16T08:29:11.462Z,20.08
2019-04-16T08:30:11.387Z,20.08
2019-04-16T08:31:12.729Z,20.20
2019-04-16T08:32:12.834Z,19.65
2019-04-16T08:33:11.618Z,19.28
2019-04-16T08:34:11.100Z,19.50
2019-04-16T08:35:11.018Z,19.78
2019-04-16T08:36:10.972Z,19.86
2019-04-16T08:37:10.877Z,19.76
2019-04-16T08:38:10.806Z,19.64
2019-04-16T08:39:10.748Z,19.52
2019-04-16T08:40:12.462Z,19.57
2019-04-16T08:41:12.731Z,19.43
2019-04-16T08:42:10.524Z,19.61
2019-04-16T08:43:10.452Z,19.80
2019-04-16T08:44:10.811Z,20.04
2019-04-16T08:45:10.314Z,20.26
2019-04-16T08:46:11.527Z,20.46
2019-04-16T08:47:12.105Z,20.57
2019-04-16T08:48:10.299Z,20.53
2019-04-16T08:49:10.034Z,20.61
2019-04-16T08:50:11.781Z,21.00
2019-04-16T08:51:09.879Z,20.97
2019-04-16T08:52:10.933Z,20.87
2019-04-16T08:53:13.539Z,20.88
2019-04-16T08:54:09.705Z,20.78
2019-04-16T08:55:09.594Z,20.82
2019-04-16T08:56:09.532Z,20.61
2019-04-16T08:57:09.453Z,20.41
2019-04-16T08:58:12.338Z,20.37
2019-04-16T08:59:10.724Z,20.56
2019-04-16T09:00:14.167Z,20.69
2019-04-16T09:01:09.173Z,20.85
2019-04-16T09:02:09.102Z,20.66
2019-04-16T09:03:09.039Z,20.71
2019-04-16T09:04:08.959Z,20.87
2019-04-16T09:05:11.459Z,21.05
2019-04-16T09:06:12.792Z,21.26
2019-04-16T09:07:12.219Z,21.51
2019-04-16T09:08:13.048Z,21.64
2019-04-16T09:09:14.343Z,21.82
2019-04-16T09:10:17.107Z,21.90
2019-04-16T09:11:21.780Z,22.05
2019-04-16T09:12:09.660Z,22.06
2019-04-16T09:13:08.404Z,21.79
2019-04-16T09:14:08.594Z,21.63
2019-04-16T09:15:08.204Z,21.51
2019-04-16T09:16:10.608Z,21.46
2019-04-16T09:17:09.757Z,21.58
2019-04-16T09:18:07.977Z,21.21
2019-04-16T09:19:07.922Z,21.12
2019-04-16T09:20:07.866Z,21.12
2019-04-16T09:21:10.579Z,21.24
2019-04-16T09:22:07.700Z,21.38
2019-04-16T09:23:07.633Z,21.49
2019-04-16T09:24:09.393Z,21.63
2019-04-16T09:25:12.494Z,21.75
2019-04-16T09:26:14.115Z,21.77
2019-04-16T09:27:07.355Z,21.90
2019-04-16T09:28:09.890Z,21.96
2019-04-16T09:29:09.941Z,21.91
2019-04-16T09:30:09.853Z,22.19
2019-04-16T09:31:07.076Z,22.31
2019-04-16T09:32:07.000Z,22.31
2019-04-16T09:33:06.931Z,22.20
2019-04-16T09:34:07.104Z,22.33
2019-04-16T09:35:10.091Z,22.21
2019-04-16T09:36:06.725Z,22.36
2019-04-16T09:37:06.665Z,22.29
2019-04-16T09:38:09.328Z,22.29
2019-04-16T09:39:06.520Z,22.12
2019-04-16T09:40:16.704Z,22.17
2019-04-16T09:41:06.380Z,22.31
2019-04-16T09:42:06.309Z,22.41
2019-04-16T09:43:16.583Z,22.19
2019-04-16T09:44:06.172Z,22.15
2019-04-16T09:45:06.125Z,22.19
2019-04-16T09:46:10.487Z,22.36
2019-04-16T09:47:05.971Z,22.61
2019-04-16T09:48:05.898Z,22.91
2019-04-16T09:49:06.227Z,23.03
2019-04-16T09:50:09.650Z,22.88
2019-04-16T09:51:05.698Z,22.89
2019-04-16T09:52:05.631Z,23.07
2019-04-16T09:53:05.557Z,23.22
2019-04-16T09:54:05.486Z,23.34
2019-04-16T09:55:05.482Z,23.53
2019-04-16T09:56:05.350Z,22.93
2019-04-16T09:57:05.294Z,22.89
2019-04-16T09:58:06.936Z,22.69
2019-04-16T09:59:05.153Z,22.61
2019-04-16T10:00:08.198Z,22.63
2019-04-16T10:01:05.017Z,22.33
2019-04-16T10:02:04.943Z,22.44
2019-04-16T10:03:04.886Z,22.56
2019-04-16T10:04:04.813Z,22.69
2019-04-16T10:05:04.773Z,22.76
2019-04-16T10:06:05.753Z,22.70
2019-04-16T10:07:04.624Z,22.67
2019-04-16T10:08:04.532Z,22.67
2019-04-16T10:09:04.467Z,22.31
2019-04-16T10:10:04.419Z,22.31
2019-04-16T10:11:06.271Z,22.63
2019-04-16T10:12:04.935Z,22.70
2019-04-16T10:13:04.221Z,22.97
2019-04-16T10:14:04.125Z,23.03
2019-04-16T10:15:04.098Z,23.01
2019-04-16T10:16:04.020Z,23.07
2019-04-16T10:17:03.925Z,22.91
2019-04-16T10:18:03.872Z,23.01
2019-04-16T10:19:07.873Z,23.16
2019-04-16T10:20:03.730Z,23.53
2019-04-16T10:21:03.667Z,23.52
2019-04-16T10:22:03.615Z,23.62
2019-04-16T10:23:03.511Z,23.52
2019-04-16T10:24:03.445Z,23.50
2019-04-16T10:25:03.387Z,23.53
2019-04-16T10:26:03.321Z,23.26
2019-04-16T10:27:04.373Z,23.32
2019-04-16T10:28:04.963Z,23.12
2019-04-16T10:29:05.864Z,23.21
2019-04-16T10:30:03.034Z,23.19
2019-04-16T10:31:03.382Z,23.16
2019-04-16T10:32:02.899Z,23.35
2019-04-16T10:33:02.856Z,23.45
2019-04-16T10:34:02.800Z,23.56
2019-04-16T10:35:02.699Z,23.18
2019-04-16T10:36:04.560Z,23.07
2019-04-16T10:37:02.567Z,23.38
2019-04-16T10:38:02.496Z,23.39
2019-04-16T10:39:02.426Z,23.57
2019-04-16T10:40:04.890Z,23.69
2019-04-16T10:41:02.314Z,24.02
2019-04-16T10:42:02.231Z,24.14
2019-04-16T10:43:02.178Z,24.36
2019-04-16T10:44:02.099Z,24.29
2019-04-16T10:45:02.028Z,23.86
2019-04-16T10:46:01.984Z,23.62
2019-04-16T10:47:01.922Z,23.63
2019-04-16T10:48:01.837Z,23.62
2019-04-16T10:49:01.784Z,23.77
2019-04-16T10:50:01.693Z,23.93
2019-04-16T10:51:01.637Z,23.96
2019-04-16T10:52:01.544Z,24.00
2019-04-16T10:53:01.506Z,24.06
2019-04-16T10:54:01.427Z,24.02
2019-04-16T10:55:01.344Z,23.77
2019-04-16T10:56:01.295Z,23.63
2019-04-16T10:57:01.224Z,23.60
2019-04-16T10:58:01.418Z,23.84
2019-04-16T10:59:01.065Z,23.93
2019-04-16T11:00:01.048Z,24.04
2019-04-16T11:01:01.172Z,23.77
2019-04-16T11:02:00.896Z,23.93
2019-04-16T11:03:00.830Z,23.64
2019-04-16T11:04:00.738Z,23.53
2019-04-16T11:05:03.048Z,23.62
2019-04-16T11:06:00.608Z,23.60
2019-04-16T11:07:00.520Z,23.87
2019-04-16T11:08:00.708Z,23.74
2019-04-16T11:09:00.389Z,24.02
2019-04-16T11:10:00.325Z,23.74
2019-04-16T11:11:00.274Z,23.37
2019-04-16T11:12:04.809Z,23.29
2019-04-16T11:13:00.148Z,23.16
2019-04-16T11:14:00.674Z,22.49
2019-04-16T11:14:59.982Z,22.72
2019-04-16T11:15:59.926Z,23.11
2019-04-16T11:16:59.893Z,23.39
2019-04-16T11:18:00.797Z,23.60
2019-04-16T11:18:59.721Z,23.77
2019-04-16T11:20:00.176Z,23.94
2019-04-16T11:20:59.677Z,24.21
2019-04-16T11:21:59.909Z,24.14
2019-04-16T11:22:59.436Z,24.36
2019-04-16T11:23:59.366Z,24.36
2019-04-16T11:24:59.315Z,23.71
2019-04-16T11:25:59.242Z,23.39
2019-04-16T11:26:59.158Z,23.53
2019-04-16T11:27:59.098Z,23.78
2019-04-16T11:28:59.022Z,23.90
2019-04-16T11:29:58.954Z,23.94
2019-04-16T11:30:58.939Z,24.39
2019-04-16T11:31:58.820Z,24.24
2019-04-16T11:32:58.774Z,23.97
2019-04-16T11:33:58.684Z,23.92
2019-04-16T11:34:58.629Z,23.68
2019-04-16T11:35:58.571Z,23.75
2019-04-16T11:36:58.762Z,23.75
2019-04-16T11:37:58.437Z,23.97
2019-04-16T11:38:58.391Z,24.34
2019-04-16T11:39:58.303Z,24.53
2019-04-16T11:40:58.208Z,24.82
2019-04-16T11:41:58.155Z,24.77
2019-04-16T11:42:58.175Z,24.89
2019-04-16T11:43:58.017Z,24.82
2019-04-16T11:44:57.940Z,24.56
2019-04-16T11:45:57.878Z,24.68
2019-04-16T11:46:57.816Z,24.51
2019-04-16T11:47:57.774Z,24.63
2019-04-16T11:48:57.678Z,24.29
2019-04-16T11:49:57.620Z,23.87
2019-04-16T11:50:57.544Z,23.81
2019-04-16T11:51:57.481Z,23.37
2019-04-16T11:52:58.473Z,23.07
2019-04-16T11:53:57.315Z,23.29
2019-04-16T11:55:00.641Z,23.60
2019-04-16T11:55:57.183Z,23.77
2019-04-16T11:56:59.250Z,23.59
2019-04-16T11:57:57.045Z,23.16
2019-04-16T11:58:57.593Z,23.26
2019-04-16T12:00:06.400Z,23.39
2019-04-16T12:00:56.859Z,23.53
2019-04-16T12:01:56.798Z,23.50
2019-04-16T12:02:56.727Z,23.56
2019-04-16T12:03:56.707Z,23.75
2019-04-16T12:04:59.239Z,24.15
2019-04-16T12:05:56.512Z,24.59
2019-04-16T12:06:56.435Z,24.77
2019-04-16T12:07:56.346Z,24.94
2019-04-16T12:08:56.285Z,24.80
2019-04-16T12:09:56.217Z,24.86
2019-04-16T12:10:56.174Z,24.71
2019-04-16T12:11:56.107Z,24.18
2019-04-16T12:12:56.009Z,24.05
2019-04-16T12:13:55.934Z,23.92
2019-04-16T12:14:55.866Z,24.06
2019-04-16T12:15:55.870Z,24.08
2019-04-16T12:16:55.760Z,24.46
2019-04-16T12:17:56.694Z,24.71
2019-04-16T12:18:55.633Z,24.66
2019-04-16T12:19:55.639Z,24.67
2019-04-16T12:20:55.481Z,24.93
2019-04-16T12:21:55.461Z,24.98
2019-04-16T12:22:55.322Z,25.07
2019-04-16T12:23:55.315Z,25.04
2019-04-16T12:24:55.217Z,25.05
2019-04-16T12:25:55.109Z,25.04
2019-04-16T12:26:55.140Z,25.14
2019-04-16T12:27:54.981Z,25.23
2019-04-16T12:28:54.903Z,25.35
2019-04-16T12:29:54.927Z,24.84
2019-04-16T12:30:54.772Z,24.80
2019-04-16T12:31:54.774Z,24.87
2019-04-16T12:32:55.670Z,24.94
2019-04-16T12:33:54.569Z,24.80
2019-04-16T12:34:54.534Z,24.66
2019-04-16T12:35:54.454Z,24.44
2019-04-16T12:36:54.386Z,24.74
2019-04-16T12:37:54.479Z,24.98
2019-04-16T12:38:54.268Z,24.83
2019-04-16T12:39:54.150Z,24.87
2019-04-16T12:40:54.253Z,24.99
2019-04-16T12:41:54.054Z,24.93
2019-04-16T12:42:53.944Z,25.19
2019-04-16T12:43:53.920Z,25.23
2019-04-16T12:44:53.842Z,25.05
2019-04-16T12:45:53.872Z,25.14
2019-04-16T12:46:53.740Z,24.83
2019-04-16T12:47:53.625Z,24.84
2019-04-16T12:48:53.672Z,24.53
2019-04-16T12:49:53.509Z,24.33
2019-04-16T12:50:53.633Z,24.29
2019-04-16T12:51:53.357Z,24.66
2019-04-16T12:52:54.925Z,24.61
2019-04-16T12:53:54.116Z,24.70
2019-04-16T12:54:58.318Z,24.92
2019-04-16T12:55:53.092Z,24.79
2019-04-16T12:56:53.295Z,24.83
2019-04-16T12:57:52.954Z,24.83
2019-04-16T12:58:52.852Z,24.90
2019-04-16T12:59:55.019Z,24.84
2019-04-16T13:00:52.703Z,24.83
2019-04-16T13:01:52.636Z,24.52
2019-04-16T13:02:52.575Z,24.53
2019-04-16T13:03:53.303Z,24.83
2019-04-16T13:04:52.433Z,24.82